Time;durP1;ratioP1;P1;durP2;ratioP2;P2;SDS_P1;SDS_P2;PMS_P1;PMS_P2;Temp;Humidity;BMP_temperature;BMP_pressure;BME280_temperature;BME280_humidity;BME280_pressure;Samples;Min_cycle;Max_cycle;Signal;HPM_P1;HPM_P2
2021/12/23 00:00:32;;;;;;;4.97;3.50;;;22.00;30.90;;;;;;5071627;28;20396;-67
2021/12/23 00:02:58;;;;;;;4.97;3.85;;;21.90;31.00;;;;;;5071508;28;20380;-68
2021/12/23 00:05:23;;;;;;;4.75;3.75;;;21.90;30.60;;;;;;5071508;28;20388;-68
2021/12/23 00:07:49;;;;;;;4.40;3.50;;;21.90;30.80;;;;;;5053487;28;20481;-67
2021/12/23 00:10:15;;;;;;;4.65;3.67;;;21.90;30.80;;;;;;5070965;28;20403;-68
2021/12/23 00:12:43;;;;;;;4.70;3.57;;;21.80;30.80;;;;;;5071273;28;20442;-67
2021/12/23 00:17:57;;;;;;;4.80;3.72;;;21.80;30.90;;;;;;5071359;28;20401;-67
2021/12/23 00:25:35;;;;;;;5.15;3.45;;;21.70;31.00;;;;;;5071276;28;20399;-67
2021/12/23 00:28:02;;;;;;;4.90;3.60;;;21.60;30.90;;;;;;5071020;28;20384;-67
2021/12/23 00:30:27;;;;;;;4.90;3.57;;;21.60;31.00;;;;;;5071136;28;20474;-68
2021/12/23 00:32:55;;;;;;;5.40;3.55;;;21.70;31.00;;;;;;5071307;28;20505;-67
2021/12/23 00:35:22;;;;;;;4.15;3.38;;;21.70;30.80;;;;;;5071139;28;20415;-67
2021/12/23 00:37:50;;;;;;;4.68;3.60;;;21.70;30.70;;;;;;5071181;28;20386;-67
2021/12/23 00:40:17;;;;;;;5.97;3.67;;;21.70;30.70;;;;;;5052623;28;20395;-67
2021/12/23 00:42:43;;;;;;;4.50;3.40;;;21.70;30.60;;;;;;5070384;28;20431;-67
2021/12/23 00:45:09;;;;;;;3.87;2.90;;;21.80;30.60;;;;;;5070644;28;20423;-67
2021/12/23 00:47:35;;;;;;;4.70;3.27;;;21.80;30.60;;;;;;5071176;28;20433;-67
2021/12/23 00:50:01;;;;;;;4.50;3.40;;;21.80;30.50;;;;;;5070684;28;20395;-67
2021/12/23 00:52:35;;;;;;;4.35;3.45;;;21.80;30.50;;;;;;5052882;28;20424;-68
2021/12/23 00:55:03;;;;;;;4.00;3.27;;;21.80;30.50;;;;;;5052867;28;20895;-67
2021/12/23 00:57:30;;;;;;;4.43;3.13;;;21.80;30.50;;;;;;5053214;28;20779;-67
2021/12/23 00:59:58;;;;;;;4.70;3.47;;;21.80;30.50;;;;;;5070683;28;20475;-67
2021/12/23 01:02:27;;;;;;;4.20;3.20;;;21.80;30.40;;;;;;5052692;28;20379;-68
2021/12/23 01:04:53;;;;;;;4.22;3.40;;;21.80;30.40;;;;;;5070834;28;20787;-67
2021/12/23 01:07:19;;;;;;;4.33;3.40;;;21.80;30.40;;;;;;5052851;28;20442;-67
2021/12/23 01:09:45;;;;;;;3.75;2.90;;;21.80;30.40;;;;;;5073918;28;20384;-68
2021/12/23 01:12:13;;;;;;;3.75;3.05;;;21.80;30.40;;;;;;5073986;28;20407;-68
2021/12/23 01:14:53;;;;;;;3.80;2.95;;;21.80;30.40;;;;;;5056624;28;20392;-68
2021/12/23 01:19:51;;;;;;;4.45;3.40;;;21.80;30.40;;;;;;5074514;28;20721;-67
2021/12/23 01:22:18;;;;;;;4.30;3.10;;;21.80;30.30;;;;;;5073971;28;20392;-68
2021/12/23 01:24:43;;;;;;;4.00;2.97;;;21.80;30.30;;;;;;5056378;28;20388;-68
2021/12/23 01:27:09;;;;;;;4.57;3.03;;;21.70;30.30;;;;;;5056464;28;20396;-67
2021/12/23 01:29:35;;;;;;;4.30;3.40;;;21.70;30.20;;;;;;5074304;28;20398;-67
2021/12/23 01:32:04;;;;;;;4.27;3.30;;;21.80;30.20;;;;;;5074013;28;20402;-67
2021/12/23 01:34:30;;;;;;;3.90;3.00;;;21.80;30.10;;;;;;5074093;28;20467;-68
2021/12/23 01:36:56;;;;;;;3.60;2.72;;;21.70;30.10;;;;;;5074127;28;20421;-67
2021/12/23 01:39:22;;;;;;;3.67;2.80;;;21.60;30.20;;;;;;5074194;28;20391;-67
2021/12/23 01:41:47;;;;;;;3.88;3.10;;;21.50;30.30;;;;;;5055900;28;20399;-68
2021/12/23 01:44:13;;;;;;;4.30;3.20;;;21.50;30.00;;;;;;5073559;28;20384;-67
2021/12/23 01:46:39;;;;;;;4.60;3.50;;;21.40;30.10;;;;;;5074112;28;20430;-67
2021/12/23 01:49:05;;;;;;;4.00;3.10;;;21.40;30.20;;;;;;5074036;28;20460;-67
2021/12/23 01:51:31;;;;;;;3.87;3.00;;;21.40;30.20;;;;;;5073986;28;20453;-67
2021/12/23 01:53:57;;;;;;;3.92;2.70;;;21.30;30.30;;;;;;5055971;28;20718;-67
2021/12/23 01:56:24;;;;;;;3.73;2.90;;;21.20;30.30;;;;;;5073218;28;20852;-67
2021/12/23 01:58:50;;;;;;;3.78;2.85;;;21.30;30.30;;;;;;5073601;28;20384;-68
2021/12/23 02:01:16;;;;;;;4.15;2.88;;;21.30;30.20;;;;;;5073302;28;20729;-67
2021/12/23 02:03:42;;;;;;;4.15;3.03;;;21.20;30.10;;;;;;5073532;28;20379;-67
2021/12/23 02:06:09;;;;;;;3.60;2.75;;;21.20;30.30;;;;;;5073527;28;20462;-67
2021/12/23 02:08:36;;;;;;;4.25;2.97;;;21.20;29.90;;;;;;5073760;28;20518;-67
2021/12/23 02:11:04;;;;;;;4.22;2.85;;;21.10;30.10;;;;;;5073571;28;20424;-67
2021/12/23 02:13:31;;;;;;;3.80;2.90;;;21.10;30.10;;;;;;5073618;28;20466;-67
2021/12/23 02:15:56;;;;;;;4.30;3.05;;;21.10;30.10;;;;;;5073064;28;20412;-67
2021/12/23 02:18:22;;;;;;;3.92;2.90;;;21.10;30.70;;;;;;5073032;28;20493;-67
2021/12/23 02:20:48;;;;;;;3.88;2.70;;;21.10;30.20;;;;;;5054195;28;20403;-67
2021/12/23 02:23:14;;;;;;;4.28;3.13;;;21.10;30.00;;;;;;5073385;28;20528;-67
2021/12/23 02:25:40;;;;;;;3.28;2.55;;;21.00;30.00;;;;;;5073343;28;20470;-67
2021/12/23 02:28:07;;;;;;;3.63;2.80;;;21.00;30.20;;;;;;5054984;28;20391;-67
2021/12/23 02:30:36;;;;;;;3.80;2.80;;;21.10;30.20;;;;;;5072935;28;20396;-67
2021/12/23 02:33:02;;;;;;;3.90;3.10;;;21.10;30.20;;;;;;5073203;28;20380;-67
2021/12/23 02:35:28;;;;;;;3.50;2.80;;;21.10;30.10;;;;;;5073085;28;20399;-67
2021/12/23 02:37:54;;;;;;;3.70;2.90;;;21.10;30.20;;;;;;5073078;28;20445;-67
2021/12/23 02:40:35;;;;;;;4.00;2.75;;;21.20;30.10;;;;;;5072577;28;20392;-68
2021/12/23 02:43:12;;;;;;;3.53;2.90;;;21.20;30.10;;;;;;5072727;28;20495;-68
2021/12/23 02:45:38;;;;;;;3.60;2.83;;;21.20;30.00;;;;;;5072932;28;20384;-67
2021/12/23 02:48:04;;;;;;;3.37;2.90;;;21.20;30.00;;;;;;5054513;28;20414;-68
2021/12/23 02:50:30;;;;;;;4.13;2.90;;;21.30;30.00;;;;;;5072615;28;21303;-68
2021/12/23 02:52:58;;;;;;;3.97;3.00;;;21.20;30.00;;;;;;5072681;28;20423;-67
2021/12/23 02:55:24;;;;;;;3.77;2.90;;;21.20;30.00;;;;;;5072661;28;20412;-67
2021/12/23 02:57:50;;;;;;;3.80;3.00;;;21.20;30.00;;;;;;5072655;28;20376;-67
2021/12/23 03:00:16;;;;;;;3.58;2.83;;;21.20;30.00;;;;;;5072216;28;20380;-68
2021/12/23 03:02:42;;;;;;;4.32;3.30;;;21.20;30.00;;;;;;5072541;28;20396;-68
2021/12/23 03:05:08;;;;;;;4.10;3.00;;;21.30;30.00;;;;;;5072558;28;20384;-67
2021/12/23 03:07:34;;;;;;;3.85;3.00;;;21.20;29.90;;;;;;5072473;28;20395;-67
2021/12/23 03:10:00;;;;;;;3.95;3.10;;;21.30;29.90;;;;;;5072384;28;20470;-68
2021/12/23 03:12:26;;;;;;;3.30;2.80;;;21.20;29.90;;;;;;5071889;28;20422;-67
2021/12/23 03:14:52;;;;;;;3.80;3.00;;;21.20;29.90;;;;;;5054289;28;20431;-67
2021/12/23 03:17:17;;;;;;;3.43;2.90;;;21.30;29.90;;;;;;5071816;28;20399;-68
2021/12/23 03:19:43;;;;;;;3.70;2.85;;;21.20;29.90;;;;;;5072140;28;20384;-67
2021/12/23 03:22:08;;;;;;;3.67;2.80;;;21.20;30.00;;;;;;5071922;28;20388;-67
2021/12/23 03:24:34;;;;;;;3.90;3.00;;;21.20;29.90;;;;;;5071943;28;20429;-67
2021/12/23 03:27:00;;;;;;;3.73;2.87;;;21.20;29.90;;;;;;5072085;28;20493;-67
2021/12/23 03:29:25;;;;;;;4.20;3.10;;;21.20;29.90;;;;;;5072080;28;20468;-67
2021/12/23 03:31:51;;;;;;;3.37;2.80;;;21.10;29.90;;;;;;5053755;28;20463;-67
2021/12/23 03:34:17;;;;;;;3.70;3.00;;;21.10;29.90;;;;;;5071543;28;20383;-67
2021/12/23 03:36:43;;;;;;;3.40;2.70;;;21.00;29.80;;;;;;5071781;28;20514;-67
2021/12/23 03:39:08;;;;;;;3.90;2.97;;;21.00;30.00;;;;;;5071631;28;20379;-67
2021/12/23 03:41:34;;;;;;;3.40;2.73;;;20.90;29.90;;;;;;5053984;28;20807;-67
2021/12/23 03:44:00;;;;;;;3.80;2.88;;;20.90;30.00;;;;;;5071550;28;20395;-67
2021/12/23 03:46:25;;;;;;;3.37;2.77;;;20.90;30.00;;;;;;5071333;28;20433;-69
2021/12/23 03:48:51;;;;;;;3.33;2.80;;;20.90;30.00;;;;;;5053833;28;20387;-67
2021/12/23 03:51:17;;;;;;;3.53;2.90;;;20.80;29.90;;;;;;5071776;28;20419;-67
2021/12/23 03:53:42;;;;;;;3.40;2.63;;;20.80;30.00;;;;;;5053770;28;20418;-67
2021/12/23 03:56:08;;;;;;;3.47;2.50;;;20.80;30.00;;;;;;5071373;28;20422;-67
2021/12/23 03:58:34;;;;;;;3.40;2.80;;;20.80;29.90;;;;;;5071466;28;20383;-67
2021/12/23 04:00:59;;;;;;;3.43;2.60;;;20.80;29.90;;;;;;5071587;28;20479;-67
2021/12/23 04:03:25;;;;;;;3.80;2.67;;;20.70;30.00;;;;;;5071652;28;20411;-67
2021/12/23 04:05:51;;;;;;;3.10;2.50;;;20.70;29.90;;;;;;5071479;28;20399;-68
2021/12/23 04:08:17;;;;;;;3.47;2.80;;;20.70;30.00;;;;;;5071119;28;20972;-67
2021/12/23 04:10:43;;;;;;;3.58;2.85;;;20.70;30.00;;;;;;5071376;28;20486;-67
2021/12/23 04:13:08;;;;;;;3.50;2.70;;;20.80;30.00;;;;;;5071398;28;20384;-67
2021/12/23 04:15:34;;;;;;;3.80;2.80;;;20.80;30.00;;;;;;5071508;28;20923;-67
2021/12/23 04:18:00;;;;;;;3.10;2.50;;;20.80;29.90;;;;;;5071419;28;20380;-67
2021/12/23 04:20:33;;;;;;;3.13;2.60;;;20.80;29.90;;;;;;5070880;28;20435;-68
2021/12/23 04:22:59;;;;;;;3.58;2.70;;;20.80;29.90;;;;;;5071445;28;20384;-67
2021/12/23 04:25:27;;;;;;;3.40;2.60;;;20.80;29.90;;;;;;5071369;28;20383;-67
2021/12/23 04:27:56;;;;;;;3.80;2.60;;;20.80;29.90;;;;;;5071519;28;20437;-67
2021/12/23 04:30:23;;;;;;;3.25;2.60;;;20.90;29.80;;;;;;5070899;28;20438;-68
2021/12/23 04:32:49;;;;;;;3.10;2.42;;;20.90;29.80;;;;;;5071282;28;20895;-67
2021/12/23 04:35:15;;;;;;;3.20;2.42;;;20.90;29.80;;;;;;5071186;28;20461;-68
2021/12/23 04:37:41;;;;;;;3.33;2.40;;;20.90;29.80;;;;;;5071071;28;20426;-67
2021/12/23 04:40:09;;;;;;;2.90;2.40;;;20.90;29.70;;;;;;5070924;28;20383;-67
2021/12/23 04:42:35;;;;;;;3.45;2.78;;;20.90;29.70;;;;;;5052574;28;20412;-67
2021/12/23 04:45:00;;;;;;;3.10;2.40;;;20.90;29.70;;;;;;5074852;28;20917;-67
2021/12/23 04:47:26;;;;;;;3.10;2.53;;;20.90;29.70;;;;;;5075267;28;20391;-67
2021/12/23 04:49:51;;;;;;;3.20;2.45;;;20.90;29.60;;;;;;5075054;28;20441;-67
2021/12/23 04:52:17;;;;;;;3.80;2.40;;;20.90;29.30;;;;;;5074282;28;20394;-67
2021/12/23 04:54:43;;;;;;;3.63;2.60;;;20.90;29.90;;;;;;5074952;28;20383;-67
2021/12/23 04:57:08;;;;;;;3.53;2.57;;;21.00;29.80;;;;;;5075036;28;20876;-67
2021/12/23 04:59:34;;;;;;;5.25;2.83;;;21.00;29.90;;;;;;5057062;28;20529;-68
2021/12/23 05:02:00;;;;;;;4.27;2.80;;;21.00;29.80;;;;;;5074757;28;20422;-68
2021/12/23 05:04:25;;;;;;;4.60;2.85;;;21.00;29.70;;;;;;5056272;28;20395;-67
2021/12/23 05:06:51;;;;;;;3.87;3.10;;;21.00;29.80;;;;;;5074821;28;20380;-67
2021/12/23 05:09:17;;;;;;;4.38;2.83;;;21.00;29.70;;;;;;5074767;28;20401;-68
2021/12/23 05:11:44;;;;;;;4.30;3.10;;;21.00;29.60;;;;;;5056750;28;20387;-67
2021/12/23 05:14:10;;;;;;;4.75;3.20;;;20.90;29.60;;;;;;5056560;28;20438;-68
2021/12/23 05:16:36;;;;;;;3.97;2.90;;;20.80;29.40;;;;;;5056436;28;20975;-67
2021/12/23 05:19:02;;;;;;;4.43;3.47;;;20.80;29.60;;;;;;5074510;28;20479;-67
2021/12/23 05:21:27;;;;;;;4.85;3.38;;;20.70;30.00;;;;;;5074492;28;20379;-68
2021/12/23 05:23:53;;;;;;;4.90;3.33;;;20.80;30.00;;;;;;5074419;28;20467;-67
2021/12/23 05:26:19;;;;;;;4.40;3.38;;;20.80;30.00;;;;;;5073814;28;20474;-68
2021/12/23 05:28:44;;;;;;;4.73;3.70;;;20.70;29.60;;;;;;5056472;28;20388;-67
2021/12/23 05:31:10;;;;;;;4.95;3.20;;;20.70;29.80;;;;;;5051663;28;20830;-67
2021/12/23 05:33:36;;;;;;;4.47;3.47;;;20.60;29.90;;;;;;5075529;28;20403;-68
2021/12/23 05:36:02;;;;;;;4.70;3.50;;;20.60;30.10;;;;;;5074221;28;20471;-67
2021/12/23 05:38:27;;;;;;;5.90;3.70;;;20.60;30.60;;;;;;5073684;28;20388;-68
2021/12/23 05:40:53;;;;;;;4.57;3.53;;;20.70;30.50;;;;;;5056606;28;20797;-66
2021/12/23 05:43:19;;;;;;;4.50;3.40;;;20.60;30.00;;;;;;5056126;28;20412;-67
2021/12/23 05:45:44;;;;;;;4.63;3.60;;;20.60;29.90;;;;;;5056111;28;20795;-66
2021/12/23 05:48:10;;;;;;;4.30;3.10;;;20.60;30.00;;;;;;5073848;28;20403;-68
2021/12/23 05:50:36;;;;;;;4.50;3.17;;;20.50;30.00;;;;;;5055629;28;20465;-68
2021/12/23 05:53:02;;;;;;;5.75;3.65;;;20.50;30.40;;;;;;5073617;28;20437;-67
2021/12/23 05:55:27;;;;;;;6.03;3.63;;;20.60;30.60;;;;;;5073198;28;20418;-68
2021/12/23 05:57:54;;;;;;;5.15;3.58;;;20.60;30.50;;;;;;5073738;28;20821;-68
2021/12/23 06:00:29;;;;;;;6.32;3.40;;;20.60;29.90;;;;;;5073559;28;20399;-68
2021/12/23 06:02:56;;;;;;;10.60;4.17;;;20.60;30.50;;;;;;5073764;28;20396;-68
2021/12/23 06:05:23;;;;;;;10.82;3.80;;;20.60;31.20;;;;;;5073009;28;20384;-68
2021/12/23 06:07:48;;;;;;;8.57;3.60;;;20.70;31.80;;;;;;5072339;28;20457;-68
2021/12/23 06:10:15;;;;;;;8.67;3.40;;;20.80;31.90;;;;;;5076484;28;20406;-68
2021/12/23 06:12:41;;;;;;;6.00;3.78;;;20.80;31.90;;;;;;5062284;28;20465;-67
2021/12/23 06:15:08;;;;;;;6.85;3.60;;;20.70;31.10;;;;;;5052710;28;20904;-66
2021/12/23 06:17:34;;;;;;;8.52;3.83;;;20.70;31.70;;;;;;5053033;28;20448;-66
2021/12/23 06:20:00;;;;;;;7.00;3.50;;;20.70;32.30;;;;;;5052903;28;20389;-66
2021/12/23 06:22:26;;;;;;;8.93;3.55;;;20.80;32.80;;;;;;5052646;28;20393;-67
2021/12/23 06:24:52;;;;;;;6.22;3.33;;;20.90;33.30;;;;;;5052415;28;20393;-67
2021/12/23 06:27:19;;;;;;;7.00;3.50;;;20.90;32.80;;;;;;5051466;28;20719;-67
2021/12/23 06:29:45;;;;;;;9.45;3.58;;;20.90;32.10;;;;;;5051401;28;20424;-67
2021/12/23 06:32:11;;;;;;;9.88;3.80;;;20.80;32.50;;;;;;5051714;28;20447;-66
2021/12/23 06:34:38;;;;;;;10.20;3.60;;;20.90;31.90;;;;;;5052086;28;20385;-66
2021/12/23 06:37:04;;;;;;;7.22;3.50;;;20.90;33.00;;;;;;5052656;28;20445;-67
2021/12/23 06:39:32;;;;;;;7.65;3.28;;;20.90;33.20;;;;;;5053880;28;20877;-67
2021/12/23 06:41:58;;;;;;;9.15;3.95;;;21.00;33.90;;;;;;5055751;28;20411;-66
2021/12/23 06:44:24;;;;;;;9.55;3.83;;;21.00;32.90;;;;;;5069976;28;21226;-66
2021/12/23 06:46:50;;;;;;;7.85;3.75;;;20.90;32.60;;;;;;5082287;28;20397;-67
2021/12/23 06:49:16;;;;;;;7.78;3.67;;;20.80;32.80;;;;;;5061195;28;20441;-67
2021/12/23 06:51:42;;;;;;;6.07;3.40;;;20.80;32.60;;;;;;5059766;28;20468;-69
2021/12/23 06:54:09;;;;;;;6.30;3.63;;;20.80;33.10;;;;;;5045073;28;20385;-67
2021/12/23 06:56:34;;;;;;;6.15;3.50;;;20.80;33.00;;;;;;5042872;28;20418;-67
2021/12/23 06:59:00;;;;;;;6.47;3.90;;;20.80;32.70;;;;;;5039781;28;20390;-67
2021/12/23 07:01:26;;;;;;;5.82;3.60;;;20.80;31.00;;;;;;5052374;28;20389;-68
2021/12/23 07:04:14;;;;;;;7.40;3.67;;;20.60;30.90;;;;;;5052348;28;20429;-68
2021/12/23 07:06:47;;;;;;;5.57;3.40;;;20.50;31.10;;;;;;5053044;28;20539;-68
2021/12/23 07:09:13;;;;;;;6.95;3.40;;;20.60;31.70;;;;;;5071706;28;20475;-70
2021/12/23 07:11:39;;;;;;;4.45;3.38;;;20.60;31.70;;;;;;5053987;28;20438;-70
2021/12/23 07:14:05;;;;;;;7.23;3.43;;;20.60;32.00;;;;;;5072043;28;20822;-70
2021/12/23 07:16:30;;;;;;;7.85;3.75;;;20.70;31.10;;;;;;5071882;28;20908;-70
2021/12/23 07:18:56;;;;;;;6.37;3.30;;;20.70;30.90;;;;;;5071763;28;20379;-69
2021/12/23 07:21:22;;;;;;;6.65;3.33;;;20.70;30.90;;;;;;5071194;28;20408;-69
2021/12/23 07:23:47;;;;;;;5.80;3.43;;;20.70;30.90;;;;;;5054296;28;20433;-69
2021/12/23 07:26:16;;;;;;;5.05;3.25;;;20.70;30.80;;;;;;5071973;28;20751;-69
2021/12/23 07:28:42;;;;;;;4.85;3.40;;;20.80;30.80;;;;;;5071772;28;20406;-68
2021/12/23 07:31:08;;;;;;;5.68;3.40;;;20.80;30.50;;;;;;5053721;28;20816;-67
2021/12/23 07:33:35;;;;;;;6.40;3.70;;;20.80;30.50;;;;;;5053889;28;20483;-68
2021/12/23 07:36:05;;;;;;;5.82;3.47;;;20.80;30.40;;;;;;5071600;28;20969;-68
2021/12/23 07:38:32;;;;;;;6.28;3.33;;;20.80;30.40;;;;;;5071129;28;20426;-68
2021/12/23 07:40:58;;;;;;;7.18;3.60;;;20.80;30.40;;;;;;5071379;28;20395;-68
2021/12/23 07:46:00;;;;;;;5.65;3.22;;;20.80;30.30;;;;;;5071556;28;20410;-68
2021/12/23 07:48:26;;;;;;;4.65;3.50;;;20.80;30.20;;;;;;5088739;28;20480;-68
2021/12/23 07:50:54;;;;;;;5.00;3.15;;;20.80;30.10;;;;;;5073697;28;20455;-68
2021/12/23 07:53:20;;;;;;;4.30;3.10;;;20.80;30.00;;;;;;5091768;28;20386;-68
2021/12/23 07:55:46;;;;;;;4.40;3.10;;;20.80;30.00;;;;;;5091574;28;20769;-68
2021/12/23 07:58:12;;;;;;;5.53;3.22;;;20.80;29.90;;;;;;5091535;28;20403;-68
2021/12/23 08:00:38;;;;;;;4.07;3.00;;;20.80;29.90;;;;;;5091300;28;20407;-67
2021/12/23 08:03:03;;;;;;;4.50;3.20;;;20.80;29.80;;;;;;5073636;28;20390;-67
2021/12/23 08:05:33;;;;;;;4.50;3.10;;;20.80;29.80;;;;;;5072897;28;20386;-67
2021/12/23 08:08:00;;;;;;;5.40;3.08;;;20.80;29.70;;;;;;5091416;28;20746;-67
2021/12/23 08:10:25;;;;;;;4.05;3.00;;;20.80;29.70;;;;;;5091332;28;20520;-67
2021/12/23 08:12:51;;;;;;;4.05;3.10;;;20.80;29.70;;;;;;5091729;28;20777;-67
2021/12/23 08:15:17;;;;;;;5.10;3.17;;;20.80;29.70;;;;;;5091291;28;20421;-67
2021/12/23 08:17:43;;;;;;;4.20;3.05;;;20.80;29.60;;;;;;5091462;28;20378;-68
2021/12/23 08:20:11;;;;;;;4.20;3.15;;;20.80;29.60;;;;;;5091792;28;20394;-68
2021/12/23 08:22:37;;;;;;;3.85;2.95;;;20.80;29.60;;;;;;5091058;28;20385;-67
2021/12/23 08:25:03;;;;;;;3.87;2.83;;;20.90;29.60;;;;;;5091578;28;20390;-68
2021/12/23 08:27:31;;;;;;;4.65;3.30;;;20.90;29.60;;;;;;5091329;28;20461;-68
2021/12/23 08:29:57;;;;;;;3.95;3.13;;;20.80;29.70;;;;;;5091241;28;20394;-67
2021/12/23 08:32:23;;;;;;;4.57;3.30;;;20.80;29.70;;;;;;5091155;28;20451;-67
2021/12/23 08:34:49;;;;;;;5.03;3.13;;;20.80;29.70;;;;;;5090988;28;20421;-67
2021/12/23 08:37:15;;;;;;;4.45;3.20;;;20.80;29.70;;;;;;5090754;28;20448;-67
2021/12/23 08:39:42;;;;;;;5.10;3.10;;;20.80;29.60;;;;;;5070253;28;20380;-68
2021/12/23 08:42:09;;;;;;;4.28;2.80;;;20.90;29.70;;;;;;5070845;28;20438;-67
2021/12/23 08:44:35;;;;;;;4.27;3.10;;;20.80;29.50;;;;;;5052989;28;20446;-67
2021/12/23 08:47:01;;;;;;;4.07;3.13;;;20.80;29.50;;;;;;5070973;28;20423;-68
2021/12/23 08:49:27;;;;;;;4.28;3.10;;;20.80;29.50;;;;;;5070376;28;20474;-67
2021/12/23 08:51:53;;;;;;;4.80;3.47;;;20.80;29.50;;;;;;5070396;28;20471;-68
2021/12/23 08:54:19;;;;;;;4.55;3.08;;;20.80;29.40;;;;;;5070124;28;20426;-67
2021/12/23 08:56:45;;;;;;;4.60;3.25;;;20.80;29.40;;;;;;5052448;28;20465;-68
2021/12/23 08:59:11;;;;;;;4.38;3.42;;;20.80;29.40;;;;;;5070620;28;20977;-68
2021/12/23 09:01:39;;;;;;;4.18;3.15;;;20.90;29.40;;;;;;5050060;28;20396;-67
2021/12/23 09:04:05;;;;;;;4.10;3.25;;;20.80;29.40;;;;;;5070600;28;20872;-67
2021/12/23 09:06:31;;;;;;;4.28;3.15;;;20.80;29.40;;;;;;5073082;28;20397;-67
2021/12/23 09:08:58;;;;;;;4.17;2.87;;;20.80;29.40;;;;;;5090785;28;21054;-68
2021/12/23 09:11:24;;;;;;;4.35;3.40;;;20.80;29.40;;;;;;5090878;28;20386;-67
2021/12/23 09:13:50;;;;;;;5.10;3.60;;;20.90;29.50;;;;;;5090870;28;20374;-68
2021/12/23 09:16:15;;;;;;;4.18;3.30;;;20.80;29.40;;;;;;5090762;28;20410;-68
2021/12/23 09:18:41;;;;;;;4.57;3.27;;;20.90;29.40;;;;;;5090356;28;20382;-68
2021/12/23 09:21:07;;;;;;;4.13;3.45;;;20.90;29.50;;;;;;5090744;28;20390;-68
2021/12/23 09:23:33;;;;;;;4.40;3.57;;;20.90;29.30;;;;;;5090539;28;20436;-67
2021/12/23 09:25:59;;;;;;;4.53;3.53;;;20.90;29.40;;;;;;5090731;28;20436;-67
2021/12/23 09:28:40;;;;;;;5.65;3.53;;;20.90;29.60;;;;;;5090369;28;20385;-67
2021/12/23 09:33:51;;;;;;;5.57;3.60;;;21.00;29.70;;;;;;5074080;28;20382;-66
2021/12/23 09:36:17;;;;;;;5.43;3.58;;;21.00;29.90;;;;;;5072919;28;20416;-67
2021/12/23 09:38:43;;;;;;;5.60;3.72;;;21.00;30.00;;;;;;5072544;28;20391;-67
2021/12/23 09:41:12;;;;;;;7.05;3.80;;;21.10;30.10;;;;;;5073764;28;20479;-66
2021/12/23 09:43:39;;;;;;;5.28;3.42;;;21.10;30.10;;;;;;5074085;28;20407;-66
2021/12/23 09:46:06;;;;;;;5.00;3.58;;;21.20;31.30;;;;;;5074118;28;20388;-66
2021/12/23 09:48:34;;;;;;;6.93;3.40;;;21.20;30.70;;;;;;5072630;28;21570;-66
2021/12/23 09:51:04;;;;;;;8.10;3.80;;;21.20;33.50;;;;;;5073871;28;20392;-66
2021/12/23 09:53:32;;;;;;;7.78;3.70;;;21.30;34.20;;;;;;5074043;28;20441;-66
2021/12/23 09:55:59;;;;;;;5.45;3.38;;;21.30;34.00;;;;;;5073734;28;20416;-66
2021/12/23 09:58:25;;;;;;;5.47;3.45;;;21.30;33.20;;;;;;5055694;28;20902;-66
2021/12/23 10:00:51;;;;;;;6.47;3.83;;;21.20;32.20;;;;;;5055607;28;20478;-67
2021/12/23 10:03:19;;;;;;;6.82;3.70;;;21.20;31.90;;;;;;5073777;28;20391;-67
2021/12/23 10:05:45;;;;;;;6.45;3.50;;;21.10;31.70;;;;;;5055326;28;20487;-67
2021/12/23 10:08:13;;;;;;;6.63;3.50;;;21.10;31.60;;;;;;5072655;28;20403;-67
2021/12/23 10:38:15;;;;;;;3.93;3.00;;;21.20;30.00;;;;;;5073175;28;20391;-66
2021/12/23 10:40:44;;;;;;;4.80;3.00;;;21.20;29.90;;;;;;5071927;28;20373;-66
2021/12/23 10:43:21;;;;;;;4.82;3.35;;;21.20;29.90;;;;;;5072790;28;20990;-66
2021/12/23 10:45:55;;;;;;;4.45;3.13;;;21.30;29.90;;;;;;5073025;28;20394;-66
2021/12/23 10:48:27;;;;;;;4.68;3.17;;;21.30;29.90;;;;;;5073035;28;20876;-66
2021/12/23 10:51:04;;;;;;;4.87;3.10;;;21.30;29.90;;;;;;5072589;28;20416;-67
2021/12/23 10:54:14;;;;;;;4.85;3.03;;;21.30;29.90;;;;;;5072877;28;20423;-66
2021/12/23 10:59:27;;;;;;;4.82;2.90;;;21.30;29.70;;;;;;5072765;28;20419;-66
2021/12/23 11:02:13;;;;;;;4.45;3.05;;;21.30;29.70;;;;;;5054634;28;20396;-66
2021/12/23 11:04:57;;;;;;;4.57;3.10;;;21.30;29.80;;;;;;5072164;28;20730;-67
2021/12/23 11:07:24;;;;;;;4.47;2.92;;;21.30;29.80;;;;;;5072604;28;20439;-66
2021/12/23 11:10:14;;;;;;;4.75;2.90;;;21.30;29.70;;;;;;5072532;28;20406;-67
2021/12/23 11:37:57;;;;;;;4.30;2.85;;;21.30;29.60;;;;;;5071977;28;20426;-66
2021/12/23 11:40:49;;;;;;;4.47;2.70;;;21.40;29.60;;;;;;5072009;28;20474;-67
2021/12/23 11:45:40;;;;;;;4.43;2.90;;;21.40;29.70;;;;;;5071949;28;20403;-66
2021/12/23 11:48:08;;;;;;;3.80;2.70;;;21.40;29.70;;;;;;5071908;28;20400;-67
2021/12/23 11:50:42;;;;;;;4.85;3.00;;;21.40;29.70;;;;;;5071502;28;20396;-66
2021/12/23 11:53:09;;;;;;;3.47;2.70;;;21.40;29.70;;;;;;5071270;28;20387;-67
2021/12/23 11:55:36;;;;;;;4.37;2.83;;;21.30;29.70;;;;;;5051002;28;20739;-67
2021/12/23 11:58:02;;;;;;;4.03;2.58;;;21.30;29.80;;;;;;5053851;28;20431;-67
2021/12/23 12:00:41;;;;;;;3.90;2.53;;;21.30;29.70;;;;;;5053356;28;20847;-67
2021/12/23 12:03:09;;;;;;;4.00;2.90;;;21.40;29.70;;;;;;5073753;28;20384;-68
2021/12/23 12:05:35;;;;;;;4.20;2.60;;;21.40;29.80;;;;;;5073127;28;20387;-67
2021/12/23 12:08:09;;;;;;;10.63;3.30;;;21.30;29.60;;;;;;5064052;28;20887;-67
2021/12/23 12:10:37;;;;;;;6.13;3.35;;;21.30;29.70;;;;;;5052640;28;20478;-67
2021/12/23 12:13:07;;;;;;;6.72;3.10;;;21.30;29.80;;;;;;5071005;28;20490;-68
2021/12/23 12:15:38;;;;;;;8.07;2.90;;;21.30;29.70;;;;;;5070552;28;20748;-68
2021/12/23 12:18:06;;;;;;;5.35;3.00;;;21.40;29.80;;;;;;5067523;28;20442;-67
2021/12/23 12:20:37;;;;;;;5.75;2.63;;;21.40;29.80;;;;;;5068754;28;20392;-68
2021/12/23 12:23:10;;;;;;;7.45;3.30;;;21.40;29.80;;;;;;5067427;28;20744;-67
2021/12/23 12:25:38;;;;;;;6.68;2.95;;;21.40;29.80;;;;;;5051272;28;20883;-67
2021/12/23 12:28:04;;;;;;;5.50;3.10;;;21.40;29.80;;;;;;5070061;28;20388;-67
2021/12/23 12:30:40;;;;;;;5.07;2.90;;;21.40;29.70;;;;;;5069464;28;20875;-67
2021/12/23 12:33:10;;;;;;;6.47;3.00;;;21.40;29.80;;;;;;5069591;28;20494;-68
2021/12/23 12:35:36;;;;;;;8.75;2.72;;;21.30;29.90;;;;;;5064103;28;21033;-67
2021/12/23 12:38:29;;;;;;;6.30;2.83;;;21.20;29.90;;;;;;5051706;28;20396;-68
2021/12/23 12:41:02;;;;;;;6.20;2.90;;;21.20;30.00;;;;;;5062901;28;20407;-68
2021/12/23 12:43:40;;;;;;;5.50;2.80;;;21.30;30.00;;;;;;5067395;28;20411;-68
2021/12/23 12:46:06;;;;;;;4.50;2.50;;;21.30;29.80;;;;;;5066031;28;20404;-68
2021/12/23 12:49:00;;;;;;;7.32;2.60;;;21.40;29.90;;;;;;5068566;28;20392;-69
2021/12/23 12:51:32;;;;;;;5.57;2.72;;;21.40;30.00;;;;;;5067310;28;20403;-68
2021/12/23 12:54:04;;;;;;;4.80;2.65;;;21.40;30.00;;;;;;5069330;28;20387;-67
2021/12/23 12:56:31;;;;;;;5.90;2.78;;;21.40;30.00;;;;;;5067513;28;20900;-67
2021/12/23 12:58:57;;;;;;;4.82;2.80;;;21.50;29.90;;;;;;5068663;28;20765;-67
2021/12/23 13:01:50;;;;;;;3.60;2.53;;;21.50;30.00;;;;;;5069543;28;20388;-68
2021/12/23 13:04:35;;;;;;;5.22;2.53;;;21.50;30.00;;;;;;5067846;28;20487;-67
2021/12/23 13:07:34;;;;;;;6.35;2.70;;;21.50;30.00;;;;;;5074038;28;20388;-67
2021/12/23 13:10:17;;;;;;;5.13;2.63;;;21.60;30.00;;;;;;5074304;28;20380;-68
2021/12/23 13:12:49;;;;;;;5.33;2.60;;;21.60;30.00;;;;;;5073864;28;20394;-67
2021/12/23 13:15:24;;;;;;;4.17;2.43;;;21.60;30.00;;;;;;5073453;28;20449;-67
2021/12/23 13:18:03;;;;;;;4.72;2.42;;;21.60;29.90;;;;;;5072517;28;20400;-67
2021/12/23 13:21:05;;;;;;;4.50;2.70;;;21.70;30.00;;;;;;5069530;28;20394;-67
2021/12/23 13:23:33;;;;;;;4.60;2.50;;;21.60;30.00;;;;;;5051601;28;20479;-67
2021/12/23 13:26:01;;;;;;;4.18;2.70;;;21.60;30.00;;;;;;5053329;28;20452;-67
2021/12/23 13:28:58;;;;;;;3.92;2.30;;;21.60;30.00;;;;;;5051352;28;20478;-67
2021/12/23 13:31:28;;;;;;;4.15;2.42;;;21.60;30.00;;;;;;5052406;28;20486;-67
2021/12/23 13:34:09;;;;;;;4.23;2.30;;;21.60;30.00;;;;;;5071712;28;20406;-67
2021/12/23 13:36:45;;;;;;;4.20;2.40;;;21.70;30.00;;;;;;5070980;28;20423;-67
2021/12/23 13:39:13;;;;;;;4.05;2.30;;;21.60;30.00;;;;;;5069519;28;20860;-66
2021/12/23 13:41:45;;;;;;;3.73;2.40;;;21.70;30.00;;;;;;5071126;28;20485;-68
2021/12/23 13:44:25;;;;;;;4.30;2.33;;;21.70;30.00;;;;;;5053613;28;20415;-67
2021/12/23 13:46:57;;;;;;;3.20;2.20;;;21.70;30.00;;;;;;5070441;28;20395;-68
2021/12/23 13:49:32;;;;;;;4.13;2.20;;;21.70;30.60;;;;;;5069402;28;20391;-69
2021/12/23 13:51:57;;;;;;;3.92;2.20;;;21.60;30.20;;;;;;5052160;28;20398;-69
2021/12/23 13:54:23;;;;;;;3.80;2.30;;;21.60;30.10;;;;;;5054012;28;20747;-69
2021/12/23 13:56:51;;;;;;;3.63;2.10;;;21.60;30.20;;;;;;5053600;28;20473;-69
2021/12/23 13:59:26;;;;;;;4.32;2.25;;;21.60;30.00;;;;;;5071778;28;20389;-70
2021/12/23 14:02:13;;;;;;;4.53;2.30;;;21.60;30.00;;;;;;5070132;28;20386;-70
2021/12/23 14:04:51;;;;;;;3.42;2.05;;;21.60;30.00;;;;;;5053590;28;20383;-70